sensor_id;sensor_type;location;lat;lon;timestamp;P1;durP1;ratioP1;P2;durP2;ratioP2
8036;SDS011;4061;51.360;7.340;2023-05-07T00:01:44;4.85;;;3.83;;
8036;SDS011;4061;51.360;7.340;2023-05-07T00:04:11;5.75;;;3.83;;
8036;SDS011;4061;51.360;7.340;2023-05-07T00:06:38;6.80;;;4.30;;
8036;SDS011;4061;51.360;7.340;2023-05-07T00:09:06;5.57;;;3.38;;
8036;SDS011;4061;51.360;7.340;2023-05-07T00:11:33;4.70;;;3.25;;
8036;SDS011;4061;51.360;7.340;2023-05-07T00:14:02;3.50;;;3.20;;
8036;SDS011;4061;51.360;7.340;2023-05-07T00:16:29;3.10;;;2.55;;
8036;SDS011;4061;51.360;7.340;2023-05-07T00:18:56;4.70;;;2.45;;
8036;SDS011;4061;51.360;7.340;2023-05-07T00:21:23;3.00;;;2.20;;
8036;SDS011;4061;51.360;7.340;2023-05-07T00:23:52;4.28;;;2.25;;
8036;SDS011;4061;51.360;7.340;2023-05-07T00:26:19;2.42;;;1.92;;
8036;SDS011;4061;51.360;7.340;2023-05-07T00:28:46;3.25;;;1.70;;
8036;SDS011;4061;51.360;7.340;2023-05-07T00:31:15;3.92;;;2.00;;
8036;SDS011;4061;51.360;7.340;2023-05-07T00:33:42;4.25;;;2.30;;
8036;SDS011;4061;51.360;7.340;2023-05-07T00:36:09;1.65;;;1.55;;
8036;SDS011;4061;51.360;7.340;2023-05-07T00:38:37;2.50;;;1.38;;
8036;SDS011;4061;51.360;7.340;2023-05-07T00:41:04;2.97;;;1.50;;
8036;SDS011;4061;51.360;7.340;2023-05-07T00:43:31;1.67;;;1.58;;
8036;SDS011;4061;51.360;7.340;2023-05-07T00:45:59;1.45;;;1.35;;
8036;SDS011;4061;51.360;7.340;2023-05-07T00:48:27;2.15;;;1.52;;
8036;SDS011;4061;51.360;7.340;2023-05-07T00:50:55;3.67;;;1.60;;
8036;SDS011;4061;51.360;7.340;2023-05-07T00:53:23;5.90;;;1.63;;
8036;SDS011;4061;51.360;7.340;2023-05-07T00:55:51;2.72;;;2.22;;
8036;SDS011;4061;51.360;7.340;2023-05-07T00:58:19;3.22;;;1.70;;
8036;SDS011;4061;51.360;7.340;2023-05-07T01:00:46;1.83;;;1.40;;
8036;SDS011;4061;51.360;7.340;2023-05-07T01:03:13;3.83;;;1.63;;
8036;SDS011;4061;51.360;7.340;2023-05-07T01:05:42;1.58;;;1.48;;
8036;SDS011;4061;51.360;7.340;2023-05-07T01:08:10;1.67;;;1.58;;
8036;SDS011;4061;51.360;7.340;2023-05-07T01:13:41;4.05;;;3.28;;
8036;SDS011;4061;51.360;7.340;2023-05-07T01:16:08;3.35;;;3.05;;
8036;SDS011;4061;51.360;7.340;2023-05-07T01:18:35;10.20;;;4.18;;
8036;SDS011;4061;51.360;7.340;2023-05-07T01:21:05;7.85;;;3.90;;
8036;SDS011;4061;51.360;7.340;2023-05-07T01:23:34;6.82;;;3.75;;
8036;SDS011;4061;51.360;7.340;2023-05-07T01:26:01;5.53;;;3.70;;
8036;SDS011;4061;51.360;7.340;2023-05-07T01:28:29;6.03;;;4.13;;
8036;SDS011;4061;51.360;7.340;2023-05-07T01:30:57;3.47;;;3.17;;
8036;SDS011;4061;51.360;7.340;2023-05-07T01:33:26;5.18;;;2.88;;
8036;SDS011;4061;51.360;7.340;2023-05-07T01:35:56;6.72;;;2.40;;
8036;SDS011;4061;51.360;7.340;2023-05-07T01:38:25;3.83;;;2.55;;
8036;SDS011;4061;51.360;7.340;2023-05-07T01:40:54;1.98;;;1.40;;
8036;SDS011;4061;51.360;7.340;2023-05-07T01:43:22;2.00;;;1.90;;
8036;SDS011;4061;51.360;7.340;2023-05-07T01:45:49;2.25;;;1.70;;
8036;SDS011;4061;51.360;7.340;2023-05-07T01:48:17;2.05;;;1.90;;
8036;SDS011;4061;51.360;7.340;2023-05-07T01:50:45;2.80;;;2.20;;
8036;SDS011;4061;51.360;7.340;2023-05-07T01:53:13;2.67;;;2.47;;
8036;SDS011;4061;51.360;7.340;2023-05-07T01:55:40;5.97;;;2.75;;
8036;SDS011;4061;51.360;7.340;2023-05-07T01:58:09;2.95;;;2.53;;
8036;SDS011;4061;51.360;7.340;2023-05-07T02:00:36;3.97;;;2.50;;
8036;SDS011;4061;51.360;7.340;2023-05-07T02:03:03;2.30;;;2.20;;
8036;SDS011;4061;51.360;7.340;2023-05-07T02:05:30;3.10;;;2.50;;
8036;SDS011;4061;51.360;7.340;2023-05-07T02:07:57;5.75;;;2.00;;
8036;SDS011;4061;51.360;7.340;2023-05-07T02:10:25;2.35;;;2.15;;
8036;SDS011;4061;51.360;7.340;2023-05-07T02:12:52;4.63;;;2.70;;
8036;SDS011;4061;51.360;7.340;2023-05-07T02:15:21;3.17;;;2.05;;
8036;SDS011;4061;51.360;7.340;2023-05-07T02:17:58;2.22;;;2.00;;
8036;SDS011;4061;51.360;7.340;2023-05-07T02:20:25;9.65;;;1.88;;
8036;SDS011;4061;51.360;7.340;2023-05-07T02:22:52;2.00;;;1.90;;
8036;SDS011;4061;51.360;7.340;2023-05-07T02:25:20;3.15;;;1.92;;
8036;SDS011;4061;51.360;7.340;2023-05-07T02:27:47;2.33;;;2.20;;
8036;SDS011;4061;51.360;7.340;2023-05-07T02:30:14;2.08;;;1.98;;
8036;SDS011;4061;51.360;7.340;2023-05-07T02:32:43;1.80;;;1.70;;
8036;SDS011;4061;51.360;7.340;2023-05-07T02:35:10;1.83;;;1.73;;
8036;SDS011;4061;51.360;7.340;2023-05-07T02:37:38;2.53;;;1.70;;
8036;SDS011;4061;51.360;7.340;2023-05-07T02:40:05;1.48;;;1.30;;
8036;SDS011;4061;51.360;7.340;2023-05-07T02:42:33;6.55;;;2.20;;
8036;SDS011;4061;51.360;7.340;2023-05-07T02:45:00;4.72;;;1.85;;
8036;SDS011;4061;51.360;7.340;2023-05-07T02:47:27;2.40;;;1.65;;
8036;SDS011;4061;51.360;7.340;2023-05-07T02:49:56;1.67;;;1.58;;
8036;SDS011;4061;51.360;7.340;2023-05-07T02:52:23;1.98;;;1.88;;
8036;SDS011;4061;51.360;7.340;2023-05-07T02:54:50;1.88;;;1.67;;
8036;SDS011;4061;51.360;7.340;2023-05-07T02:57:17;2.17;;;1.88;;
8036;SDS011;4061;51.360;7.340;2023-05-07T02:59:45;5.47;;;2.15;;
8036;SDS011;4061;51.360;7.340;2023-05-07T03:02:12;2.40;;;2.25;;
8036;SDS011;4061;51.360;7.340;2023-05-07T03:04:39;4.72;;;2.13;;
8036;SDS011;4061;51.360;7.340;2023-05-07T03:07:08;3.20;;;2.33;;
8036;SDS011;4061;51.360;7.340;2023-05-07T03:09:35;3.15;;;2.15;;
8036;SDS011;4061;51.360;7.340;2023-05-07T03:12:02;2.63;;;2.42;;
8036;SDS011;4061;51.360;7.340;2023-05-07T03:14:29;2.22;;;2.03;;
8036;SDS011;4061;51.360;7.340;2023-05-07T03:16:57;2.20;;;2.10;;
8036;SDS011;4061;51.360;7.340;2023-05-07T03:19:24;2.28;;;2.08;;
8036;SDS011;4061;51.360;7.340;2023-05-07T03:21:51;2.78;;;1.80;;
8036;SDS011;4061;51.360;7.340;2023-05-07T03:24:20;1.88;;;1.77;;
8036;SDS011;4061;51.360;7.340;2023-05-07T03:26:47;2.50;;;1.83;;
8036;SDS011;4061;51.360;7.340;2023-05-07T03:29:14;2.53;;;1.73;;
8036;SDS011;4061;51.360;7.340;2023-05-07T03:31:42;1.75;;;1.65;;
8036;SDS011;4061;51.360;7.340;2023-05-07T03:34:09;4.68;;;1.77;;
8036;SDS011;4061;51.360;7.340;2023-05-07T03:36:36;2.05;;;1.90;;
8036;SDS011;4061;51.360;7.340;2023-05-07T03:39:03;2.05;;;1.38;;
8036;SDS011;4061;51.360;7.340;2023-05-07T03:41:32;3.40;;;1.55;;
8036;SDS011;4061;51.360;7.340;2023-05-07T03:43:59;4.80;;;1.80;;
8036;SDS011;4061;51.360;7.340;2023-05-07T03:46:26;1.40;;;1.30;;
8036;SDS011;4061;51.360;7.340;2023-05-07T03:48:54;1.30;;;1.30;;
8036;SDS011;4061;51.360;7.340;2023-05-07T03:51:21;3.30;;;1.58;;
8036;SDS011;4061;51.360;7.340;2023-05-07T03:53:48;1.60;;;1.50;;
8036;SDS011;4061;51.360;7.340;2023-05-07T03:56:17;1.63;;;1.55;;
8036;SDS011;4061;51.360;7.340;2023-05-07T03:58:46;7.03;;;1.30;;
8036;SDS011;4061;51.360;7.340;2023-05-07T04:01:14;3.88;;;1.38;;
8036;SDS011;4061;51.360;7.340;2023-05-07T04:03:41;1.20;;;1.20;;
8036;SDS011;4061;51.360;7.340;2023-05-07T04:06:08;2.42;;;1.77;;
8036;SDS011;4061;51.360;7.340;2023-05-07T04:08:36;5.88;;;1.88;;
8036;SDS011;4061;51.360;7.340;2023-05-07T04:11:03;3.28;;;2.97;;
8036;SDS011;4061;51.360;7.340;2023-05-07T04:13:30;6.53;;;3.03;;
8036;SDS011;4061;51.360;7.340;2023-05-07T04:16:00;4.55;;;3.00;;
8036;SDS011;4061;51.360;7.340;2023-05-07T04:18:28;3.70;;;3.40;;
8036;SDS011;4061;51.360;7.340;2023-05-07T04:20:55;3.63;;;3.13;;
8036;SDS011;4061;51.360;7.340;2023-05-07T04:23:22;4.53;;;3.78;;
8036;SDS011;4061;51.360;7.340;2023-05-07T04:25:50;3.95;;;3.55;;
8036;SDS011;4061;51.360;7.340;2023-05-07T04:28:17;8.40;;;3.65;;
8036;SDS011;4061;51.360;7.340;2023-05-07T04:30:44;6.40;;;4.35;;
8036;SDS011;4061;51.360;7.340;2023-05-07T04:33:13;4.95;;;4.47;;
8036;SDS011;4061;51.360;7.340;2023-05-07T04:35:41;4.82;;;4.28;;
8036;SDS011;4061;51.360;7.340;2023-05-07T04:38:09;5.65;;;4.78;;
8036;SDS011;4061;51.360;7.340;2023-05-07T04:40:36;5.57;;;4.63;;
8036;SDS011;4061;51.360;7.340;2023-05-07T04:43:04;5.82;;;4.60;;
8036;SDS011;4061;51.360;7.340;2023-05-07T04:45:32;4.88;;;4.47;;
8036;SDS011;4061;51.360;7.340;2023-05-07T04:47:59;6.40;;;4.78;;
8036;SDS011;4061;51.360;7.340;2023-05-07T04:50:28;7.25;;;5.22;;
8036;SDS011;4061;51.360;7.340;2023-05-07T04:52:56;6.70;;;5.40;;
8036;SDS011;4061;51.360;7.340;2023-05-07T04:55:23;5.32;;;4.53;;
8036;SDS011;4061;51.360;7.340;2023-05-07T04:57:51;5.45;;;4.20;;
8036;SDS011;4061;51.360;7.340;2023-05-07T05:00:18;5.78;;;4.55;;
8036;SDS011;4061;51.360;7.340;2023-05-07T05:02:46;4.78;;;4.05;;
8036;SDS011;4061;51.360;7.340;2023-05-07T05:05:13;4.45;;;3.58;;
8036;SDS011;4061;51.360;7.340;2023-05-07T05:07:41;5.13;;;4.53;;
8036;SDS011;4061;51.360;7.340;2023-05-07T05:10:09;4.65;;;4.03;;
8036;SDS011;4061;51.360;7.340;2023-05-07T05:12:36;5.47;;;4.50;;
8036;SDS011;4061;51.360;7.340;2023-05-07T05:15:04;8.63;;;5.18;;
8036;SDS011;4061;51.360;7.340;2023-05-07T05:17:31;3.78;;;3.47;;
8036;SDS011;4061;51.360;7.340;2023-05-07T05:19:59;8.57;;;4.20;;
8036;SDS011;4061;51.360;7.340;2023-05-07T05:22:27;4.70;;;3.85;;
8036;SDS011;4061;51.360;7.340;2023-05-07T05:24:57;3.45;;;2.90;;
8036;SDS011;4061;51.360;7.340;2023-05-07T05:27:25;4.70;;;3.08;;
8036;SDS011;4061;51.360;7.340;2023-05-07T05:29:53;3.30;;;3.00;;
8036;SDS011;4061;51.360;7.340;2023-05-07T05:32:20;5.18;;;2.78;;
8036;SDS011;4061;51.360;7.340;2023-05-07T05:34:47;3.65;;;2.80;;
8036;SDS011;4061;51.360;7.340;2023-05-07T05:37:14;7.10;;;2.78;;
8036;SDS011;4061;51.360;7.340;2023-05-07T05:39:42;2.92;;;2.72;;
8036;SDS011;4061;51.360;7.340;2023-05-07T05:42:10;5.35;;;3.10;;
8036;SDS011;4061;51.360;7.340;2023-05-07T05:44:37;8.82;;;3.17;;
8036;SDS011;4061;51.360;7.340;2023-05-07T05:47:05;2.85;;;2.75;;
8036;SDS011;4061;51.360;7.340;2023-05-07T05:49:32;3.42;;;3.13;;
8036;SDS011;4061;51.360;7.340;2023-05-07T05:52:00;3.28;;;2.97;;
8036;SDS011;4061;51.360;7.340;2023-05-07T05:54:27;4.00;;;2.80;;
8036;SDS011;4061;51.360;7.340;2023-05-07T05:56:54;7.45;;;3.25;;
8036;SDS011;4061;51.360;7.340;2023-05-07T05:59:23;3.92;;;3.00;;
8036;SDS011;4061;51.360;7.340;2023-05-07T06:01:50;2.80;;;2.60;;
8036;SDS011;4061;51.360;7.340;2023-05-07T06:04:17;3.05;;;2.72;;
8036;SDS011;4061;51.360;7.340;2023-05-07T06:06:45;5.13;;;2.60;;
8036;SDS011;4061;51.360;7.340;2023-05-07T06:09:12;2.67;;;2.58;;
8036;SDS011;4061;51.360;7.340;2023-05-07T06:11:39;5.72;;;2.40;;
8036;SDS011;4061;51.360;7.340;2023-05-07T06:14:07;3.72;;;3.42;;
8036;SDS011;4061;51.360;7.340;2023-05-07T06:16:35;3.40;;;3.10;;
8036;SDS011;4061;51.360;7.340;2023-05-07T06:19:03;2.45;;;2.25;;
8036;SDS011;4061;51.360;7.340;2023-05-07T06:21:30;2.92;;;2.75;;
8036;SDS011;4061;51.360;7.340;2023-05-07T06:23:57;2.88;;;2.08;;
8036;SDS011;4061;51.360;7.340;2023-05-07T06:26:24;2.83;;;1.85;;
8036;SDS011;4061;51.360;7.340;2023-05-07T06:28:52;2.35;;;2.20;;
8036;SDS011;4061;51.360;7.340;2023-05-07T06:31:19;3.40;;;2.38;;
8036;SDS011;4061;51.360;7.340;2023-05-07T06:33:48;2.38;;;2.20;;
8036;SDS011;4061;51.360;7.340;2023-05-07T06:36:15;7.68;;;2.10;;
8036;SDS011;4061;51.360;7.340;2023-05-07T06:38:42;2.35;;;1.70;;
8036;SDS011;4061;51.360;7.340;2023-05-07T06:41:09;2.53;;;2.17;;
8036;SDS011;4061;51.360;7.340;2023-05-07T06:43:37;2.67;;;2.40;;
8036;SDS011;4061;51.360;7.340;2023-05-07T06:46:04;2.35;;;2.22;;
8036;SDS011;4061;51.360;7.340;2023-05-07T06:48:31;2.10;;;2.00;;
8036;SDS011;4061;51.360;7.340;2023-05-07T06:51:00;3.03;;;1.75;;
8036;SDS011;4061;51.360;7.340;2023-05-07T06:53:27;5.70;;;2.13;;
8036;SDS011;4061;51.360;7.340;2023-05-07T06:55:55;1.98;;;1.77;;
8036;SDS011;4061;51.360;7.340;2023-05-07T06:58:23;2.55;;;2.10;;
8036;SDS011;4061;51.360;7.340;2023-05-07T07:00:50;2.80;;;1.67;;
8036;SDS011;4061;51.360;7.340;2023-05-07T07:03:17;1.85;;;1.75;;
8036;SDS011;4061;51.360;7.340;2023-05-07T07:05:44;1.60;;;1.35;;
8036;SDS011;4061;51.360;7.340;2023-05-07T07:08:13;2.25;;;1.70;;
8036;SDS011;4061;51.360;7.340;2023-05-07T07:10:43;1.40;;;1.40;;
8036;SDS011;4061;51.360;7.340;2023-05-07T07:13:10;2.17;;;1.95;;
8036;SDS011;4061;51.360;7.340;2023-05-07T07:15:37;6.78;;;1.90;;
8036;SDS011;4061;51.360;7.340;2023-05-07T07:18:05;1.55;;;1.45;;
8036;SDS011;4061;51.360;7.340;2023-05-07T07:20:32;1.95;;;1.75;;
8036;SDS011;4061;51.360;7.340;2023-05-07T07:22:59;2.38;;;1.70;;
8036;SDS011;4061;51.360;7.340;2023-05-07T07:25:28;4.07;;;1.60;;
8036;SDS011;4061;51.360;7.340;2023-05-07T07:27:55;2.40;;;1.45;;
8036;SDS011;4061;51.360;7.340;2023-05-07T07:30:23;1.92;;;1.70;;
8036;SDS011;4061;51.360;7.340;2023-05-07T07:32:51;1.50;;;1.35;;
8036;SDS011;4061;51.360;7.340;2023-05-07T07:35:18;1.60;;;1.48;;
8036;SDS011;4061;51.360;7.340;2023-05-07T07:37:46;2.72;;;1.20;;
8036;SDS011;4061;51.360;7.340;2023-05-07T07:40:15;3.47;;;1.40;;
8036;SDS011;4061;51.360;7.340;2023-05-07T07:42:43;1.35;;;1.13;;
8036;SDS011;4061;51.360;7.340;2023-05-07T07:45:10;1.92;;;1.30;;
8036;SDS011;4061;51.360;7.340;2023-05-07T07:47:38;1.40;;;1.25;;
8036;SDS011;4061;51.360;7.340;2023-05-07T07:50:05;2.33;;;1.17;;
8036;SDS011;4061;51.360;7.340;2023-05-07T07:52:33;10.90;;;1.38;;
8036;SDS011;4061;51.360;7.340;2023-05-07T07:55:00;1.38;;;1.17;;
8036;SDS011;4061;51.360;7.340;2023-05-07T07:57:28;4.45;;;1.02;;
8036;SDS011;4061;51.360;7.340;2023-05-07T07:59:56;7.88;;;1.08;;
8036;SDS011;4061;51.360;7.340;2023-05-07T08:02:24;1.30;;;1.20;;
8036;SDS011;4061;51.360;7.340;2023-05-07T08:04:51;2.45;;;1.13;;
8036;SDS011;4061;51.360;7.340;2023-05-07T08:07:18;1.40;;;1.30;;
8036;SDS011;4061;51.360;7.340;2023-05-07T08:09:47;3.50;;;1.45;;
8036;SDS011;4061;51.360;7.340;2023-05-07T08:12:15;8.98;;;1.50;;
8036;SDS011;4061;51.360;7.340;2023-05-07T08:14:42;1.10;;;1.10;;
8036;SDS011;4061;51.360;7.340;2023-05-07T08:17:11;7.00;;;1.50;;
8036;SDS011;4061;51.360;7.340;2023-05-07T08:19:40;0.98;;;0.90;;
8036;SDS011;4061;51.360;7.340;2023-05-07T08:22:08;1.65;;;1.55;;
8036;SDS011;4061;51.360;7.340;2023-05-07T08:24:35;1.80;;;1.08;;
8036;SDS011;4061;51.360;7.340;2023-05-07T08:27:03;1.17;;;1.15;;
8036;SDS011;4061;51.360;7.340;2023-05-07T08:29:30;5.15;;;1.02;;
8036;SDS011;4061;51.360;7.340;2023-05-07T08:31:57;4.10;;;1.20;;
8036;SDS011;4061;51.360;7.340;2023-05-07T08:34:26;1.58;;;1.10;;
8036;SDS011;4061;51.360;7.340;2023-05-07T08:36:53;1.60;;;1.20;;
8036;SDS011;4061;51.360;7.340;2023-05-07T08:39:20;0.70;;;0.70;;
8036;SDS011;4061;51.360;7.340;2023-05-07T08:41:48;4.68;;;0.93;;
8036;SDS011;4061;51.360;7.340;2023-05-07T08:44:15;1.25;;;0.85;;
8036;SDS011;4061;51.360;7.340;2023-05-07T08:46:43;2.15;;;1.00;;
8036;SDS011;4061;51.360;7.340;2023-05-07T08:49:13;3.53;;;1.10;;
8036;SDS011;4061;51.360;7.340;2023-05-07T08:51:42;0.85;;;0.85;;
8036;SDS011;4061;51.360;7.340;2023-05-07T08:54:09;1.77;;;0.77;;
8036;SDS011;4061;51.360;7.340;2023-05-07T08:56:37;1.63;;;0.80;;
8036;SDS011;4061;51.360;7.340;2023-05-07T08:59:05;0.75;;;0.75;;
8036;SDS011;4061;51.360;7.340;2023-05-07T09:01:33;1.85;;;0.88;;
8036;SDS011;4061;51.360;7.340;2023-05-07T09:04:01;2.28;;;0.80;;
8036;SDS011;4061;51.360;7.340;2023-05-07T09:06:28;5.53;;;1.17;;
8036;SDS011;4061;51.360;7.340;2023-05-07T09:08:57;0.65;;;0.65;;
8036;SDS011;4061;51.360;7.340;2023-05-07T09:11:26;5.63;;;1.08;;
8036;SDS011;4061;51.360;7.340;2023-05-07T09:13:53;1.02;;;0.68;;
8036;SDS011;4061;51.360;7.340;2023-05-07T09:16:23;1.10;;;0.88;;
8036;SDS011;4061;51.360;7.340;2023-05-07T09:18:50;1.27;;;0.95;;
8036;SDS011;4061;51.360;7.340;2023-05-07T09:21:18;1.27;;;0.90;;
8036;SDS011;4061;51.360;7.340;2023-05-07T09:23:45;2.40;;;0.60;;
8036;SDS011;4061;51.360;7.340;2023-05-07T09:26:16;0.57;;;0.57;;
8036;SDS011;4061;51.360;7.340;2023-05-07T09:28:43;1.48;;;0.50;;
8036;SDS011;4061;51.360;7.340;2023-05-07T09:31:11;5.47;;;0.68;;
8036;SDS011;4061;51.360;7.340;2023-05-07T09:33:39;0.52;;;0.50;;
8036;SDS011;4061;51.360;7.340;2023-05-07T09:36:07;1.08;;;0.60;;
8036;SDS011;4061;51.360;7.340;2023-05-07T09:38:35;0.70;;;0.70;;
8036;SDS011;4061;51.360;7.340;2023-05-07T09:41:03;0.50;;;0.50;;
8036;SDS011;4061;51.360;7.340;2023-05-07T09:43:35;4.03;;;0.57;;
8036;SDS011;4061;51.360;7.340;2023-05-07T09:46:03;0.40;;;0.40;;
8036;SDS011;4061;51.360;7.340;2023-05-07T09:48:30;1.45;;;0.60;;
8036;SDS011;4061;51.360;7.340;2023-05-07T09:50:58;0.47;;;0.20;;
8036;SDS011;4061;51.360;7.340;2023-05-07T09:53:29;0.70;;;0.35;;
8036;SDS011;4061;51.360;7.340;2023-05-07T09:55:57;0.30;;;0.30;;
8036;SDS011;4061;51.360;7.340;2023-05-07T09:58:25;1.10;;;0.93;;
8036;SDS011;4061;51.360;7.340;2023-05-07T10:00:54;0.93;;;0.70;;
8036;SDS011;4061;51.360;7.340;2023-05-07T10:03:22;0.43;;;0.32;;
8036;SDS011;4061;51.360;7.340;2023-05-07T10:05:49;0.32;;;0.32;;
8036;SDS011;4061;51.360;7.340;2023-05-07T10:08:17;0.30;;;0.30;;
8036;SDS011;4061;51.360;7.340;2023-05-07T10:10:45;4.22;;;0.50;;
8036;SDS011;4061;51.360;7.340;2023-05-07T10:13:12;5.20;;;1.33;;
8036;SDS011;4061;51.360;7.340;2023-05-07T10:15:39;0.40;;;0.40;;
8036;SDS011;4061;51.360;7.340;2023-05-07T10:18:09;1.45;;;0.30;;
8036;SDS011;4061;51.360;7.340;2023-05-07T10:20:36;0.60;;;0.43;;
8036;SDS011;4061;51.360;7.340;2023-05-07T10:23:04;0.30;;;0.30;;
8036;SDS011;4061;51.360;7.340;2023-05-07T10:25:32;3.90;;;0.40;;
8036;SDS011;4061;51.360;7.340;2023-05-07T10:28:00;0.30;;;0.30;;
8036;SDS011;4061;51.360;7.340;2023-05-07T10:30:30;0.45;;;0.40;;
8036;SDS011;4061;51.360;7.340;2023-05-07T10:33:01;1.48;;;0.57;;
8036;SDS011;4061;51.360;7.340;2023-05-07T10:35:41;0.50;;;0.50;;
8036;SDS011;4061;51.360;7.340;2023-05-07T10:38:09;0.70;;;0.55;;
8036;SDS011;4061;51.360;7.340;2023-05-07T10:40:37;1.30;;;0.70;;
8036;SDS011;4061;51.360;7.340;2023-05-07T10:43:04;0.95;;;0.50;;
8036;SDS011;4061;51.360;7.340;2023-05-07T10:45:32;0.40;;;0.25;;
8036;SDS011;4061;51.360;7.340;2023-05-07T10:48:06;1.15;;;0.55;;
8036;SDS011;4061;51.360;7.340;2023-05-07T10:50:34;4.28;;;0.45;;
8036;SDS011;4061;51.360;7.340;2023-05-07T10:53:21;0.60;;;0.50;;
8036;SDS011;4061;51.360;7.340;2023-05-07T10:55:51;1.48;;;0.40;;
8036;SDS011;4061;51.360;7.340;2023-05-07T10:58:23;0.50;;;0.50;;
8036;SDS011;4061;51.360;7.340;2023-05-07T11:00:55;1.95;;;0.47;;
8036;SDS011;4061;51.360;7.340;2023-05-07T11:03:23;1.35;;;0.55;;
8036;SDS011;4061;51.360;7.340;2023-05-07T11:11:17;0.30;;;0.30;;
8036;SDS011;4061;51.360;7.340;2023-05-07T11:13:45;0.50;;;0.50;;
8036;SDS011;4061;51.360;7.340;2023-05-07T11:16:16;0.90;;;0.50;;
8036;SDS011;4061;51.360;7.340;2023-05-07T11:18:50;0.60;;;0.60;;
8036;SDS011;4061;51.360;7.340;2023-05-07T11:21:31;3.60;;;0.60;;
8036;SDS011;4061;51.360;7.340;2023-05-07T11:23:59;1.92;;;0.82;;
8036;SDS011;4061;51.360;7.340;2023-05-07T11:26:28;4.47;;;1.33;;
8036;SDS011;4061;51.360;7.340;2023-05-07T11:28:56;1.92;;;1.52;;
8036;SDS011;4061;51.360;7.340;2023-05-07T11:31:26;4.38;;;1.20;;
8036;SDS011;4061;51.360;7.340;2023-05-07T11:33:55;1.48;;;1.38;;
8036;SDS011;4061;51.360;7.340;2023-05-07T11:36:23;1.30;;;1.30;;
8036;SDS011;4061;51.360;7.340;2023-05-07T11:38:51;10.32;;;1.48;;
8036;SDS011;4061;51.360;7.340;2023-05-07T11:41:18;2.63;;;1.38;;
8036;SDS011;4061;51.360;7.340;2023-05-07T11:43:59;1.40;;;1.30;;
8036;SDS011;4061;51.360;7.340;2023-05-07T11:46:27;1.77;;;1.35;;
8036;SDS011;4061;51.360;7.340;2023-05-07T11:48:55;1.77;;;1.23;;
8036;SDS011;4061;51.360;7.340;2023-05-07T11:51:23;2.20;;;1.15;;
8036;SDS011;4061;51.360;7.340;2023-05-07T11:53:51;2.60;;;1.35;;
8036;SDS011;4061;51.360;7.340;2023-05-07T11:56:18;1.60;;;1.50;;
8036;SDS011;4061;51.360;7.340;2023-05-07T11:58:47;1.65;;;1.52;;
8036;SDS011;4061;51.360;7.340;2023-05-07T12:01:17;4.10;;;2.50;;
8036;SDS011;4061;51.360;7.340;2023-05-07T12:03:45;1.85;;;1.75;;
8036;SDS011;4061;51.360;7.340;2023-05-07T12:06:13;2.72;;;1.83;;
8036;SDS011;4061;51.360;7.340;2023-05-07T12:08:40;5.55;;;1.80;;
8036;SDS011;4061;51.360;7.340;2023-05-07T12:11:08;2.28;;;2.08;;
8036;SDS011;4061;51.360;7.340;2023-05-07T12:13:36;2.00;;;1.88;;
8036;SDS011;4061;51.360;7.340;2023-05-07T12:16:05;2.40;;;2.20;;
8036;SDS011;4061;51.360;7.340;2023-05-07T12:18:35;2.67;;;2.03;;
8036;SDS011;4061;51.360;7.340;2023-05-07T12:21:03;2.28;;;1.90;;
8036;SDS011;4061;51.360;7.340;2023-05-07T12:23:31;3.58;;;2.55;;
8036;SDS011;4061;51.360;7.340;2023-05-07T12:25:59;2.92;;;2.30;;
8036;SDS011;4061;51.360;7.340;2023-05-07T12:28:26;2.53;;;2.33;;
8036;SDS011;4061;51.360;7.340;2023-05-07T12:30:53;2.35;;;2.00;;
8036;SDS011;4061;51.360;7.340;2023-05-07T12:33:24;4.40;;;2.08;;
8036;SDS011;4061;51.360;7.340;2023-05-07T12:35:54;4.00;;;2.08;;
8036;SDS011;4061;51.360;7.340;2023-05-07T12:38:22;3.53;;;2.10;;
8036;SDS011;4061;51.360;7.340;2023-05-07T12:40:50;3.13;;;2.53;;
8036;SDS011;4061;51.360;7.340;2023-05-07T12:43:18;3.60;;;2.42;;
8036;SDS011;4061;51.360;7.340;2023-05-07T12:45:46;3.42;;;3.13;;
8036;SDS011;4061;51.360;7.340;2023-05-07T12:48:13;4.07;;;2.72;;
8036;SDS011;4061;51.360;7.340;2023-05-07T12:50:40;3.35;;;3.05;;
8036;SDS011;4061;51.360;7.340;2023-05-07T12:53:10;14.90;;;3.50;;
8036;SDS011;4061;51.360;7.340;2023-05-07T12:55:41;3.53;;;3.20;;
8036;SDS011;4061;51.360;7.340;2023-05-07T12:58:08;3.67;;;3.38;;
8036;SDS011;4061;51.360;7.340;2023-05-07T13:00:41;4.88;;;3.92;;
8036;SDS011;4061;51.360;7.340;2023-05-07T13:03:08;9.45;;;3.90;;
8036;SDS011;4061;51.360;7.340;2023-05-07T13:05:36;6.45;;;4.60;;
8036;SDS011;4061;51.360;7.340;2023-05-07T13:08:03;8.15;;;4.43;;
8036;SDS011;4061;51.360;7.340;2023-05-07T13:10:32;7.82;;;5.20;;
8036;SDS011;4061;51.360;7.340;2023-05-07T13:13:00;12.63;;;4.28;;
8036;SDS011;4061;51.360;7.340;2023-05-07T13:15:27;7.03;;;4.07;;
8036;SDS011;4061;51.360;7.340;2023-05-07T13:17:54;8.40;;;4.07;;
8036;SDS011;4061;51.360;7.340;2023-05-07T13:20:22;12.50;;;4.40;;
8036;SDS011;4061;51.360;7.340;2023-05-07T13:22:49;7.90;;;3.58;;
8036;SDS011;4061;51.360;7.340;2023-05-07T13:25:16;5.85;;;2.97;;
8036;SDS011;4061;51.360;7.340;2023-05-07T13:27:45;4.72;;;3.85;;
8036;SDS011;4061;51.360;7.340;2023-05-07T13:30:12;4.95;;;3.90;;
8036;SDS011;4061;51.360;7.340;2023-05-07T13:32:39;7.03;;;4.30;;
8036;SDS011;4061;51.360;7.340;2023-05-07T13:35:07;5.75;;;4.50;;
8036;SDS011;4061;51.360;7.340;2023-05-07T13:37:34;5.97;;;4.60;;
8036;SDS011;4061;51.360;7.340;2023-05-07T13:40:02;11.02;;;5.13;;
8036;SDS011;4061;51.360;7.340;2023-05-07T13:42:29;6.93;;;4.60;;
8036;SDS011;4061;51.360;7.340;2023-05-07T13:44:58;7.22;;;4.82;;
8036;SDS011;4061;51.360;7.340;2023-05-07T13:47:25;8.30;;;5.45;;
8036;SDS011;4061;51.360;7.340;2023-05-07T13:49:53;7.38;;;5.65;;
8036;SDS011;4061;51.360;7.340;2023-05-07T13:52:20;13.90;;;6.93;;
8036;SDS011;4061;51.360;7.340;2023-05-07T13:54:47;11.90;;;6.68;;
8036;SDS011;4061;51.360;7.340;2023-05-07T13:57:17;12.40;;;7.80;;
8036;SDS011;4061;51.360;7.340;2023-05-07T13:59:44;9.60;;;7.50;;
8036;SDS011;4061;51.360;7.340;2023-05-07T14:02:13;9.30;;;7.80;;
8036;SDS011;4061;51.360;7.340;2023-05-07T14:04:40;10.38;;;7.90;;
8036;SDS011;4061;51.360;7.340;2023-05-07T14:07:07;13.15;;;7.82;;
8036;SDS011;4061;51.360;7.340;2023-05-07T14:09:34;12.13;;;7.70;;
8036;SDS011;4061;51.360;7.340;2023-05-07T14:12:02;12.88;;;8.57;;
8036;SDS011;4061;51.360;7.340;2023-05-07T14:14:29;11.40;;;7.03;;
8036;SDS011;4061;51.360;7.340;2023-05-07T14:16:56;12.18;;;6.65;;
8036;SDS011;4061;51.360;7.340;2023-05-07T14:19:25;11.85;;;7.70;;
8036;SDS011;4061;51.360;7.340;2023-05-07T14:21:53;11.85;;;7.03;;
8036;SDS011;4061;51.360;7.340;2023-05-07T14:24:21;9.70;;;6.00;;
8036;SDS011;4061;51.360;7.340;2023-05-07T14:26:48;13.82;;;5.78;;
8036;SDS011;4061;51.360;7.340;2023-05-07T14:29:15;8.65;;;5.63;;
8036;SDS011;4061;51.360;7.340;2023-05-07T14:31:44;5.97;;;4.65;;
8036;SDS011;4061;51.360;7.340;2023-05-07T14:34:11;4.50;;;4.13;;
8036;SDS011;4061;51.360;7.340;2023-05-07T14:36:39;9.90;;;3.90;;
8036;SDS011;4061;51.360;7.340;2023-05-07T14:39:07;7.57;;;3.17;;
8036;SDS011;4061;51.360;7.340;2023-05-07T14:41:35;3.58;;;3.10;;
8036;SDS011;4061;51.360;7.340;2023-05-07T14:44:02;3.70;;;2.80;;
8036;SDS011;4061;51.360;7.340;2023-05-07T14:46:29;2.17;;;2.00;;
8036;SDS011;4061;51.360;7.340;2023-05-07T14:48:57;4.28;;;2.47;;
8036;SDS011;4061;51.360;7.340;2023-05-07T14:51:24;3.17;;;2.08;;
8036;SDS011;4061;51.360;7.340;2023-05-07T14:53:54;1.67;;;1.67;;
8036;SDS011;4061;51.360;7.340;2023-05-07T14:56:22;2.17;;;1.65;;
8036;SDS011;4061;51.360;7.340;2023-05-07T14:58:49;2.17;;;1.98;;
8036;SDS011;4061;51.360;7.340;2023-05-07T15:01:16;3.25;;;2.28;;
8036;SDS011;4061;51.360;7.340;2023-05-07T15:03:43;9.63;;;2.05;;
8036;SDS011;4061;51.360;7.340;2023-05-07T15:06:11;2.90;;;2.70;;
8036;SDS011;4061;51.360;7.340;2023-05-07T15:08:38;2.47;;;2.28;;
8036;SDS011;4061;51.360;7.340;2023-05-07T15:11:06;5.10;;;3.00;;
8036;SDS011;4061;51.360;7.340;2023-05-07T15:13:34;3.13;;;2.60;;
8036;SDS011;4061;51.360;7.340;2023-05-07T15:16:01;3.30;;;2.92;;
8036;SDS011;4061;51.360;7.340;2023-05-07T15:18:28;6.20;;;2.95;;
8036;SDS011;4061;51.360;7.340;2023-05-07T15:20:55;5.15;;;2.58;;
8036;SDS011;4061;51.360;7.340;2023-05-07T15:23:23;5.32;;;3.30;;
8036;SDS011;4061;51.360;7.340;2023-05-07T15:25:51;3.67;;;2.78;;
8036;SDS011;4061;51.360;7.340;2023-05-07T15:28:19;6.47;;;3.17;;